Time;durP1;ratioP1;P1;durP2;ratioP2;P2;SDS_P1;SDS_P2;PMS_P1;PMS_P2;Temp;Humidity;BMP_temperature;BMP_pressure;BME280_temperature;BME280_humidity;BME280_pressure;Samples;Min_cycle;Max_cycle;Signal;HPM_P1;HPM_P2
2022/04/03 00:01:59;;;;;;;7.38;2.70;;;3.90;67.40;;;;;;4982294;28;20038;-77
2022/04/03 00:04:25;;;;;;;6.18;2.60;;;3.80;67.50;;;;;;4983437;28;20030;-76
2022/04/03 00:06:50;;;;;;;6.82;2.83;;;3.80;67.60;;;;;;4981556;28;20019;-77
2022/04/03 00:09:16;;;;;;;7.50;2.80;;;3.80;67.60;;;;;;4985991;28;20047;-76
2022/04/03 00:11:42;;;;;;;7.43;2.70;;;3.80;67.80;;;;;;4982416;28;20034;-77
2022/04/03 00:14:08;;;;;;;7.05;2.67;;;3.80;67.90;;;;;;4981888;28;20504;-77
2022/04/03 00:16:36;;;;;;;6.45;2.72;;;3.80;68.00;;;;;;4986242;28;20038;-77
2022/04/03 00:19:02;;;;;;;7.28;2.58;;;3.80;68.00;;;;;;4984077;28;20378;-76
2022/04/03 00:21:28;;;;;;;6.28;2.47;;;3.80;67.90;;;;;;4971808;28;20050;-78
2022/04/03 00:23:54;;;;;;;11.98;2.70;;;3.80;68.10;;;;;;4973691;28;20030;-76
2022/04/03 00:26:19;;;;;;;6.38;2.55;;;3.80;68.00;;;;;;4979295;28;20040;-76
2022/04/03 00:28:45;;;;;;;7.57;2.42;;;3.80;67.80;;;;;;4985630;28;20023;-77
2022/04/03 00:31:12;;;;;;;8.48;2.75;;;3.80;67.70;;;;;;4986807;28;20027;-77
2022/04/03 00:33:39;;;;;;;9.88;2.70;;;3.70;67.50;;;;;;4984078;28;20749;-77
2022/04/03 00:36:05;;;;;;;11.27;2.70;;;3.70;67.60;;;;;;4977601;28;20074;-77
2022/04/03 00:38:31;;;;;;;5.57;2.53;;;3.70;67.60;;;;;;4980271;28;20026;-77
2022/04/03 00:40:58;;;;;;;6.88;2.55;;;3.70;67.50;;;;;;4984164;28;20066;-77
2022/04/03 00:43:24;;;;;;;6.57;2.50;;;3.70;67.50;;;;;;4983556;28;20111;-78
2022/04/03 00:45:50;;;;;;;5.80;2.40;;;3.70;67.50;;;;;;4982254;28;20116;-78
2022/04/03 00:48:15;;;;;;;5.63;2.45;;;3.70;67.60;;;;;;4986605;28;20034;-76
2022/04/03 00:50:43;;;;;;;6.43;2.72;;;3.60;67.70;;;;;;4974716;28;20038;-76
2022/04/03 00:53:09;;;;;;;6.28;2.55;;;3.60;67.80;;;;;;4974937;28;20034;-77
2022/04/03 00:55:35;;;;;;;7.32;2.58;;;3.60;68.00;;;;;;4974086;28;20106;-76
2022/04/03 00:58:03;;;;;;;8.80;2.80;;;3.60;67.90;;;;;;4983941;28;20022;-76
2022/04/03 01:00:29;;;;;;;6.47;2.55;;;3.60;68.00;;;;;;4969404;28;20394;-77
2022/04/03 01:02:55;;;;;;;7.43;2.80;;;3.50;68.10;;;;;;4984901;28;20444;-76
2022/04/03 01:05:21;;;;;;;7.28;2.70;;;3.50;68.20;;;;;;4983152;28;20050;-76
2022/04/03 01:07:47;;;;;;;8.10;2.90;;;3.50;68.50;;;;;;4983029;28;20086;-77
2022/04/03 01:10:12;;;;;;;5.35;2.60;;;3.40;68.60;;;;;;4982761;28;20568;-76
2022/04/03 01:12:44;;;;;;;7.72;3.13;;;3.40;68.80;;;;;;4983169;28;20027;-77
2022/04/03 01:15:12;;;;;;;9.75;2.70;;;3.40;69.50;;;;;;4985836;28;20126;-76
2022/04/03 01:17:38;;;;;;;8.35;2.78;;;3.40;69.80;;;;;;4984290;28;20442;-76
2022/04/03 01:20:06;;;;;;;6.93;2.75;;;3.40;69.90;;;;;;4982080;28;20048;-77
2022/04/03 01:22:32;;;;;;;8.18;2.53;;;3.40;69.80;;;;;;4979405;28;20027;-76
2022/04/03 01:24:59;;;;;;;6.18;2.83;;;3.40;69.80;;;;;;4974364;28;20034;-77
2022/04/03 01:27:25;;;;;;;8.90;2.92;;;3.30;70.00;;;;;;4977795;28;20084;-78
2022/04/03 01:29:52;;;;;;;10.85;3.35;;;3.30;70.50;;;;;;4985458;28;20225;-76
2022/04/03 01:32:19;;;;;;;8.95;3.17;;;3.20;71.20;;;;;;4985214;28;20069;-76
2022/04/03 01:34:45;;;;;;;11.85;3.70;;;3.20;71.60;;;;;;4984382;28;20484;-76
2022/04/03 01:37:11;;;;;;;9.38;3.95;;;3.10;71.60;;;;;;4981185;28;20058;-77
2022/04/03 01:39:37;;;;;;;11.82;3.00;;;3.10;71.50;;;;;;4984548;28;20019;-77
2022/04/03 01:42:03;;;;;;;7.30;2.67;;;3.10;71.30;;;;;;4985127;28;20559;-76
2022/04/03 01:44:29;;;;;;;9.02;3.15;;;3.00;71.20;;;;;;4984932;28;20029;-76
2022/04/03 01:46:54;;;;;;;6.70;2.90;;;3.00;71.20;;;;;;4984328;28;20043;-77
2022/04/03 01:49:20;;;;;;;7.68;2.90;;;3.00;71.20;;;;;;4982199;28;20030;-77
2022/04/03 01:51:46;;;;;;;6.80;3.00;;;3.00;71.30;;;;;;4983246;28;20027;-76
2022/04/03 01:54:12;;;;;;;6.75;3.30;;;2.90;71.50;;;;;;4986049;28;20133;-76
2022/04/03 01:56:39;;;;;;;6.90;3.00;;;2.90;71.60;;;;;;4978333;28;20030;-77
2022/04/03 01:59:05;;;;;;;9.15;2.88;;;2.90;71.70;;;;;;4981192;28;20141;-76
2022/04/03 02:01:32;;;;;;;6.85;2.95;;;2.80;71.80;;;;;;4982690;28;20057;-77
2022/04/03 02:03:58;;;;;;;7.53;2.88;;;2.80;71.70;;;;;;4982624;28;20072;-77
2022/04/03 02:06:24;;;;;;;7.80;3.10;;;2.80;71.70;;;;;;4977412;28;20062;-76
2022/04/03 02:08:49;;;;;;;8.00;3.25;;;2.80;71.90;;;;;;4973626;28;20106;-76
2022/04/03 02:11:15;;;;;;;7.80;3.15;;;2.70;71.80;;;;;;4983415;28;20023;-77
2022/04/03 02:13:41;;;;;;;9.43;3.30;;;2.70;72.00;;;;;;4983825;28;20023;-76
2022/04/03 02:16:09;;;;;;;6.82;2.95;;;2.70;71.90;;;;;;4981697;28;20046;-77
2022/04/03 02:18:35;;;;;;;7.75;3.13;;;2.60;72.10;;;;;;4983323;28;20034;-76
2022/04/03 02:21:01;;;;;;;11.65;3.20;;;2.60;72.40;;;;;;4983920;28;20563;-76
2022/04/03 02:23:27;;;;;;;6.97;3.10;;;2.60;72.60;;;;;;4985450;28;20045;-77
2022/04/03 02:25:53;;;;;;;7.93;2.85;;;2.60;72.70;;;;;;4979567;28;20026;-76
2022/04/03 02:28:19;;;;;;;8.05;2.95;;;2.60;72.60;;;;;;4986274;28;20075;-77
2022/04/03 02:30:45;;;;;;;8.65;2.90;;;2.60;72.40;;;;;;4986400;28;20413;-77
2022/04/03 02:33:11;;;;;;;9.20;2.95;;;2.50;72.30;;;;;;4989243;28;20107;-78
2022/04/03 02:35:36;;;;;;;13.48;3.17;;;2.50;72.60;;;;;;4988228;28;20030;-77
2022/04/03 02:38:02;;;;;;;10.48;3.22;;;2.50;72.80;;;;;;4978991;28;20039;-77
2022/04/03 02:40:28;;;;;;;5.68;3.03;;;2.50;73.00;;;;;;4987551;28;20092;-75
2022/04/03 02:42:54;;;;;;;5.85;2.80;;;2.50;72.90;;;;;;4984362;28;20305;-77
2022/04/03 02:45:20;;;;;;;6.65;3.05;;;2.50;73.00;;;;;;4990147;28;20125;-77
2022/04/03 02:47:54;;;;;;;7.18;2.95;;;2.50;72.90;;;;;;4987431;28;20045;-77
2022/04/03 02:50:21;;;;;;;7.38;2.85;;;2.50;72.90;;;;;;4982313;28;20065;-77
2022/04/03 02:52:48;;;;;;;8.98;3.20;;;2.50;73.00;;;;;;4985028;28;20145;-77
2022/04/03 02:55:19;;;;;;;6.15;3.25;;;2.40;73.20;;;;;;4984688;28;20110;-77
2022/04/03 02:57:45;;;;;;;6.97;2.80;;;2.50;73.20;;;;;;4975924;28;20116;-77
2022/04/03 03:00:15;;;;;;;6.95;2.92;;;2.40;73.20;;;;;;4987270;28;20443;-77
2022/04/03 03:02:41;;;;;;;8.57;3.25;;;2.40;73.00;;;;;;4991885;28;20034;-76
2022/04/03 03:05:08;;;;;;;6.05;2.92;;;2.40;73.10;;;;;;4979866;28;20505;-76
2022/04/03 03:07:38;;;;;;;10.07;3.13;;;2.40;73.20;;;;;;4984794;28;20497;-77
2022/04/03 03:10:06;;;;;;;10.23;3.05;;;2.30;73.50;;;;;;4984240;28;20047;-76
2022/04/03 03:12:32;;;;;;;7.35;3.13;;;2.30;74.10;;;;;;4987069;28;20027;-77
2022/04/03 03:14:57;;;;;;;8.25;3.20;;;2.30;74.20;;;;;;4982682;28;20042;-77
2022/04/03 03:17:23;;;;;;;11.23;3.35;;;2.30;74.00;;;;;;4986423;28;20041;-76
2022/04/03 03:19:49;;;;;;;7.63;3.30;;;2.20;74.30;;;;;;4983675;28;20113;-77
2022/04/03 03:22:15;;;;;;;6.65;3.20;;;2.20;74.40;;;;;;4982936;28;20490;-76
2022/04/03 03:24:41;;;;;;;7.68;3.22;;;2.10;74.50;;;;;;4979397;28;20035;-77
2022/04/03 03:27:07;;;;;;;7.57;3.65;;;2.20;74.80;;;;;;4987338;28;20031;-76
2022/04/03 03:29:33;;;;;;;7.45;3.15;;;2.10;75.00;;;;;;4986841;28;20038;-77
2022/04/03 03:31:58;;;;;;;11.15;4.13;;;2.10;75.10;;;;;;4978454;28;20052;-76
2022/04/03 03:34:24;;;;;;;8.27;3.42;;;2.10;75.10;;;;;;4977798;28;20482;-77
2022/04/03 03:36:50;;;;;;;9.63;3.80;;;2.10;75.30;;;;;;4986240;28;20041;-77
2022/04/03 03:39:16;;;;;;;11.02;4.07;;;2.10;75.20;;;;;;4972355;28;20026;-77
2022/04/03 03:41:43;;;;;;;9.18;3.78;;;2.00;75.10;;;;;;4972593;28;20547;-77
2022/04/03 03:44:10;;;;;;;7.25;3.55;;;2.00;75.50;;;;;;4980628;28;20027;-77
2022/04/03 03:46:40;;;;;;;8.27;3.50;;;3.00;75.80;;;;;;4977850;28;20085;-77
2022/04/03 03:49:07;;;;;;;7.93;3.65;;;2.60;84.60;;;;;;4984278;28;20026;-78
2022/04/03 03:51:34;;;;;;;6.13;3.20;;;1.90;75.20;;;;;;4976854;28;20030;-78
2022/04/03 03:54:00;;;;;;;8.00;3.20;;;1.90;75.50;;;;;;4977528;28;20034;-76
2022/04/03 03:56:27;;;;;;;10.48;3.42;;;2.40;76.30;;;;;;4991144;28;20053;-77
2022/04/03 03:58:53;;;;;;;8.02;3.80;;;1.90;75.60;;;;;;4982737;28;20030;-78
2022/04/03 04:01:20;;;;;;;10.02;3.70;;;2.00;76.70;;;;;;4983759;28;20062;-77
2022/04/03 04:03:46;;;;;;;9.45;3.33;;;2.00;76.80;;;;;;4972648;28;20038;-77
2022/04/03 04:06:11;;;;;;;6.60;3.30;;;2.20;85.90;;;;;;4986417;28;20045;-76
2022/04/03 04:08:37;;;;;;;9.10;3.60;;;1.90;76.30;;;;;;4986613;28;20054;-76
2022/04/03 04:11:03;;;;;;;13.15;3.67;;;2.00;85.40;;;;;;4983270;28;20134;-77
2022/04/03 04:13:29;;;;;;;7.97;3.45;;;1.70;84.80;;;;;;4986126;28;20038;-76
2022/04/03 04:15:55;;;;;;;8.65;3.63;;;2.00;85.40;;;;;;4986338;28;20085;-77
2022/04/03 04:18:21;;;;;;;7.20;3.72;;;1.60;84.60;;;;;;4986348;28;20414;-77
2022/04/03 04:20:46;;;;;;;7.35;3.30;;;1.80;84.60;;;;;;4989549;28;20050;-79
2022/04/03 04:23:13;;;;;;;9.82;3.60;;;;;;;;;;4977300;28;20034;-78
2022/04/03 04:25:39;;;;;;;11.73;3.72;;;2.00;75.20;;;;;;4984602;28;20022;-76
2022/04/03 04:28:05;;;;;;;10.10;3.45;;;;;;;;;;4982346;28;20031;-77
2022/04/03 04:30:31;;;;;;;10.57;3.90;;;2.00;75.10;;;;;;4985657;28;20131;-76
2022/04/03 04:32:57;;;;;;;9.98;3.70;;;2.00;76.10;;;;;;4987968;28;20066;-76
2022/04/03 04:35:30;;;;;;;8.93;3.60;;;2.00;77.00;;;;;;4983804;28;20173;-77
2022/04/03 04:38:09;;;;;;;8.18;3.53;;;2.00;76.20;;;;;;4983209;28;20045;-77
2022/04/03 04:40:38;;;;;;;9.63;4.00;;;2.20;85.10;;;;;;4980930;28;20418;-77
2022/04/03 04:43:04;;;;;;;9.93;3.80;;;1.90;76.20;;;;;;4983484;28;20472;-77
2022/04/03 04:45:30;;;;;;;9.77;3.70;;;2.00;76.10;;;;;;4985421;28;20030;-77
2022/04/03 04:47:59;;;;;;;7.85;3.63;;;1.90;76.90;;;;;;4988177;28;20397;-78
2022/04/03 04:50:27;;;;;;;9.05;3.55;;;2.00;76.00;;;;;;4984393;28;20038;-77
2022/04/03 04:52:53;;;;;;;8.77;3.58;;;2.00;83.00;;;;;;4982180;28;20038;-77
2022/04/03 04:55:19;;;;;;;6.38;3.67;;;1.90;75.80;;;;;;4983747;28;20049;-79
2022/04/03 04:57:56;;;;;;;8.32;3.30;;;1.90;75.80;;;;;;4983482;28;20048;-77
2022/04/03 05:00:25;;;;;;;10.82;3.63;;;1.90;75.70;;;;;;4956646;28;20034;-77
2022/04/03 05:02:51;;;;;;;10.90;3.70;;;1.90;75.80;;;;;;4974346;28;20054;-78
2022/04/03 05:05:18;;;;;;;8.07;3.13;;;1.90;75.70;;;;;;4984708;28;20066;-77
2022/04/03 05:07:45;;;;;;;10.55;3.70;;;1.90;75.70;;;;;;4982253;28;20061;-77
2022/04/03 05:10:15;;;;;;;10.00;3.72;;;1.90;75.50;;;;;;4984414;28;20042;-77
2022/04/03 05:12:42;;;;;;;7.45;3.50;;;1.90;75.80;;;;;;4968111;28;20475;-77
2022/04/03 05:15:13;;;;;;;7.28;3.40;;;1.90;76.20;;;;;;4983705;28;20049;-77
2022/04/03 05:17:40;;;;;;;8.15;3.55;;;1.90;76.50;;;;;;4974697;28;20035;-76
2022/04/03 05:20:07;;;;;;;11.10;4.05;;;1.90;76.40;;;;;;4983918;28;20042;-77
2022/04/03 05:22:33;;;;;;;7.85;3.63;;;1.90;76.50;;;;;;4982568;28;20019;-77
2022/04/03 05:25:01;;;;;;;8.27;3.60;;;1.90;76.70;;;;;;4982425;28;20192;-78
2022/04/03 05:27:27;;;;;;;8.10;3.42;;;2.60;82.80;;;;;;4979327;28;20038;-77
2022/04/03 05:29:54;;;;;;;8.35;3.22;;;1.90;76.50;;;;;;4983260;28;20084;-78
2022/04/03 05:32:28;;;;;;;7.82;3.42;;;2.00;76.80;;;;;;4969897;28;20042;-79
2022/04/03 05:34:57;;;;;;;8.68;3.20;;;2.70;83.00;;;;;;4983825;28;20027;-79
2022/04/03 05:37:23;;;;;;;8.93;3.35;;;1.90;76.40;;;;;;4982309;28;20057;-79
2022/04/03 05:39:51;;;;;;;9.13;3.70;;;1.90;76.00;;;;;;4981736;28;20077;-80
2022/04/03 05:42:17;;;;;;;8.10;3.50;;;1.90;75.80;;;;;;4985736;28;20585;-78
2022/04/03 05:44:43;;;;;;;9.02;3.50;;;1.90;76.00;;;;;;4988396;28;20042;-78
2022/04/03 05:47:08;;;;;;;7.15;3.20;;;1.90;76.00;;;;;;4981207;28;20030;-78
2022/04/03 05:49:34;;;;;;;8.48;3.60;;;1.30;76.50;;;;;;4982974;28;20034;-78
2022/04/03 05:52:00;;;;;;;9.20;3.80;;;2.00;76.10;;;;;;4984459;28;20030;-78
2022/04/03 05:54:25;;;;;;;7.38;3.25;;;2.00;75.80;;;;;;4985442;28;20034;-78
2022/04/03 05:56:51;;;;;;;8.05;3.33;;;2.10;75.70;;;;;;4983611;28;20513;-79
2022/04/03 05:59:20;;;;;;;8.55;3.25;;;2.70;76.20;;;;;;4984334;28;20110;-76
2022/04/03 06:01:47;;;;;;;10.32;3.25;;;2.10;75.00;;;;;;4983121;28;20042;-75
2022/04/03 06:04:12;;;;;;;8.70;3.45;;;2.10;74.80;;;;;;4989927;28;20022;-78
2022/04/03 06:06:38;;;;;;;6.95;3.40;;;2.20;74.60;;;;;;4987145;28;20121;-78
2022/04/03 06:09:04;;;;;;;11.65;3.58;;;2.20;74.50;;;;;;4979719;28;20061;-79
2022/04/03 06:11:30;;;;;;;13.85;3.22;;;2.30;74.20;;;;;;4982195;28;20039;-77
2022/04/03 06:13:56;;;;;;;11.63;4.20;;;2.30;73.90;;;;;;4985167;28;20551;-77
2022/04/03 06:16:25;;;;;;;6.45;3.20;;;2.50;73.90;;;;;;4985798;28;20034;-76
2022/04/03 06:18:53;;;;;;;6.70;3.38;;;2.80;72.90;;;;;;4986135;28;20091;-77
2022/04/03 06:21:19;;;;;;;7.47;3.17;;;3.60;69.80;;;;;;4987929;28;20046;-78
2022/04/03 06:23:45;;;;;;;9.85;3.40;;;4.20;67.10;;;;;;4990196;28;20366;-79
2022/04/03 06:26:12;;;;;;;7.28;3.25;;;5.00;64.20;;;;;;4984405;28;20054;-80
2022/04/03 06:28:37;;;;;;;8.00;3.42;;;5.80;61.00;;;;;;4986714;28;20030;-82
2022/04/03 06:31:04;;;;;;;8.40;3.17;;;6.80;57.80;;;;;;4969789;28;20061;-81
2022/04/03 06:33:30;;;;;;;7.18;3.40;;;7.60;54.90;;;;;;4989266;28;20037;-80
2022/04/03 06:35:56;;;;;;;10.63;5.38;;;8.50;52.40;;;;;;4988004;28;20042;-77
2022/04/03 06:38:22;;;;;;;8.60;4.35;;;9.20;49.90;;;;;;4944406;28;20042;-77
2022/04/03 06:40:54;;;;;;;7.57;3.10;;;10.00;47.40;;;;;;4985332;28;20050;-78
2022/04/03 06:43:22;;;;;;;7.20;3.50;;;10.80;45.00;;;;;;4984446;28;20107;-80
2022/04/03 06:45:48;;;;;;;6.20;3.05;;;11.50;43.20;;;;;;4984502;28;20409;-79
2022/04/03 06:48:15;;;;;;;8.77;3.30;;;12.10;42.70;;;;;;4988491;28;20038;-81
2022/04/03 06:50:41;;;;;;;6.43;3.35;;;12.80;40.20;;;;;;4986270;28;20072;-79
2022/04/03 06:53:07;;;;;;;8.20;3.33;;;13.50;38.70;;;;;;4985348;28;20038;-80
2022/04/03 06:55:33;;;;;;;8.95;3.30;;;14.10;37.20;;;;;;4985642;28;20023;-77
2022/04/03 06:57:59;;;;;;;9.20;3.45;;;14.80;35.80;;;;;;4987491;28;20113;-76
2022/04/03 07:00:26;;;;;;;6.25;3.40;;;15.30;34.50;;;;;;4981900;28;20058;-80
2022/04/03 07:02:51;;;;;;;7.57;3.40;;;15.90;33.40;;;;;;4985067;28;20112;-75
2022/04/03 07:05:18;;;;;;;9.07;3.40;;;16.40;32.10;;;;;;4987610;28;20756;-79
2022/04/03 07:07:44;;;;;;;9.32;3.17;;;17.70;30.00;;;;;;4985688;28;20058;-78
2022/04/03 07:10:10;;;;;;;9.20;3.05;;;17.50;30.20;;;;;;4986801;28;20409;-80
2022/04/03 07:12:37;;;;;;;6.80;3.25;;;18.10;29.50;;;;;;4986470;28;20038;-80
2022/04/03 07:15:04;;;;;;;7.40;2.75;;;18.80;28.80;;;;;;4988415;28;20026;-80
2022/04/03 07:17:30;;;;;;;8.43;3.08;;;19.40;27.90;;;;;;4991013;28;20512;-80
2022/04/03 07:19:55;;;;;;;7.88;2.80;;;19.90;26.00;;;;;;4985638;28;20069;-80
2022/04/03 07:22:21;;;;;;;9.20;3.08;;;20.40;25.80;;;;;;4988289;28;20042;-79
2022/04/03 07:24:47;;;;;;;8.38;3.05;;;20.70;24.20;;;;;;4984769;28;20030;-77
2022/04/03 07:27:12;;;;;;;6.63;2.85;;;21.00;23.50;;;;;;4988080;28;20405;-78
2022/04/03 07:29:39;;;;;;;8.05;3.05;;;21.30;24.40;;;;;;4988563;28;20026;-79
2022/04/03 07:32:05;;;;;;;9.55;3.08;;;21.60;23.20;;;;;;4988111;28;20443;-82
2022/04/03 07:34:31;;;;;;;7.43;2.80;;;22.00;22.90;;;;;;4983420;28;20037;-81
2022/04/03 07:36:57;;;;;;;8.00;3.20;;;22.40;22.10;;;;;;4986440;28;20026;-80
2022/04/03 07:39:24;;;;;;;6.88;3.00;;;22.80;21.50;;;;;;4987629;28;20030;-81
2022/04/03 07:41:50;;;;;;;7.32;2.63;;;22.90;21.10;;;;;;4975883;28;20494;-81
2022/04/03 07:44:16;;;;;;;8.60;2.92;;;23.10;20.80;;;;;;4977880;28;20035;-79
2022/04/03 07:46:42;;;;;;;7.68;3.00;;;23.30;20.60;;;;;;4976458;28;20432;-81
2022/04/03 07:49:08;;;;;;;8.25;3.10;;;23.60;20.50;;;;;;4980769;28;20386;-81
2022/04/03 07:51:34;;;;;;;6.47;2.80;;;23.70;20.20;;;;;;4979749;28;20081;-81
2022/04/03 07:54:00;;;;;;;10.35;4.18;;;24.20;19.70;;;;;;4973787;28;20026;-81
2022/04/03 07:56:26;;;;;;;7.90;2.85;;;24.60;19.50;;;;;;4986940;28;20374;-81
2022/04/03 07:58:51;;;;;;;6.50;2.80;;;24.80;19.10;;;;;;4979369;28;20042;-78
2022/04/03 08:01:17;;;;;;;6.20;2.90;;;25.10;18.20;;;;;;4976140;28;20043;-79
2022/04/03 08:03:43;;;;;;;7.72;2.97;;;25.50;18.70;;;;;;4986902;28;20429;-75
2022/04/03 08:06:09;;;;;;;7.68;3.00;;;26.00;18.10;;;;;;4983214;28;20030;-79
2022/04/03 08:08:35;;;;;;;6.53;2.70;;;26.30;17.70;;;;;;4988118;28;20544;-80
2022/04/03 08:11:01;;;;;;;8.30;3.17;;;26.40;17.40;;;;;;4984251;28;20027;-81
2022/04/03 08:13:26;;;;;;;6.50;2.75;;;26.60;17.30;;;;;;4981946;28;20117;-81
2022/04/03 08:15:52;;;;;;;6.05;2.78;;;26.90;16.70;;;;;;4976018;28;20033;-80
2022/04/03 08:18:19;;;;;;;7.80;3.10;;;27.00;16.90;;;;;;4985477;28;20081;-80
2022/04/03 08:20:45;;;;;;;6.32;2.80;;;27.50;16.80;;;;;;4985643;28;20778;-78
2022/04/03 08:23:11;;;;;;;9.07;2.92;;;27.70;16.40;;;;;;4985655;28;20045;-78
2022/04/03 08:25:37;;;;;;;6.07;2.63;;;28.20;16.20;;;;;;4984455;28;20030;-80
2022/04/03 08:28:03;;;;;;;6.80;2.60;;;28.60;15.40;;;;;;4983715;28;20056;-81
2022/04/03 08:30:33;;;;;;;7.20;2.50;;;28.40;15.20;;;;;;4987299;28;20082;-79
2022/04/03 08:33:01;;;;;;;7.70;2.80;;;28.90;15.40;;;;;;4970167;28;20605;-80
2022/04/03 08:35:30;;;;;;;8.70;2.92;;;29.30;15.00;;;;;;4983751;28;20038;-78
2022/04/03 08:37:56;;;;;;;6.00;2.90;;;29.60;14.50;;;;;;4983026;28;20133;-78
2022/04/03 08:40:24;;;;;;;6.55;2.97;;;29.70;14.60;;;;;;4983923;28;20042;-80
2022/04/03 08:42:52;;;;;;;8.23;3.30;;;30.00;14.10;;;;;;4984762;28;20034;-81
2022/04/03 08:45:18;;;;;;;6.85;3.30;;;30.00;13.70;;;;;;4985730;28;20030;-80
2022/04/03 08:47:45;;;;;;;8.50;3.50;;;29.90;13.70;;;;;;4984613;28;20026;-81
2022/04/03 08:50:13;;;;;;;8.73;3.60;;;30.10;13.80;;;;;;4985075;28;20050;-81
2022/04/03 08:52:44;;;;;;;6.45;3.30;;;30.20;13.80;;;;;;4990116;28;20568;-80
2022/04/03 08:55:10;;;;;;;9.27;3.50;;;30.60;13.60;;;;;;4978936;28;20041;-81
2022/04/03 08:57:36;;;;;;;7.25;3.22;;;31.30;13.50;;;;;;4985999;28;20030;-80
2022/04/03 09:00:04;;;;;;;7.65;3.17;;;31.70;13.00;;;;;;4994363;28;20132;-81
2022/04/03 09:02:29;;;;;;;6.78;3.22;;;32.20;12.90;;;;;;5005391;28;20096;-80
2022/04/03 09:04:55;;;;;;;7.97;3.33;;;32.40;12.80;;;;;;4984122;28;20030;-80
2022/04/03 09:07:21;;;;;;;5.30;3.17;;;32.50;12.80;;;;;;4992714;28;20037;-81
2022/04/03 09:09:59;;;;;;;6.55;3.40;;;32.70;12.60;;;;;;4983611;28;20038;-81
2022/04/03 09:12:26;;;;;;;6.80;3.40;;;32.80;12.40;;;;;;4970027;28;20037;-80
2022/04/03 09:14:53;;;;;;;6.38;2.90;;;33.00;12.10;;;;;;4986868;28;22065;-80
2022/04/03 09:17:37;;;;;;;7.05;3.20;;;33.10;12.10;;;;;;4981897;28;20445;-80
2022/04/03 09:20:08;;;;;;;7.70;3.67;;;32.90;12.10;;;;;;4980674;28;20116;-81
2022/04/03 09:22:35;;;;;;;6.72;3.35;;;33.30;11.90;;;;;;4982597;28;20034;-80
2022/04/03 09:25:06;;;;;;;5.55;2.90;;;33.40;11.80;;;;;;4981668;28;20026;-80
2022/04/03 09:27:34;;;;;;;6.68;3.42;;;33.40;11.70;;;;;;4985534;28;20070;-81
2022/04/03 09:30:07;;;;;;;7.72;3.13;;;33.60;12.00;;;;;;4985667;28;20030;-80
2022/04/03 09:32:34;;;;;;;7.65;3.30;;;33.70;11.80;;;;;;4981809;28;20551;-80
2022/04/03 09:35:00;;;;;;;7.57;3.47;;;33.70;11.80;;;;;;4986218;28;20037;-80
2022/04/03 09:37:27;;;;;;;7.07;3.05;;;34.00;10.90;;;;;;4988919;28;20109;-81
2022/04/03 09:39:53;;;;;;;7.03;3.22;;;34.10;10.80;;;;;;4988095;28;20030;-80
2022/04/03 09:42:20;;;;;;;5.68;3.03;;;34.40;11.00;;;;;;4974207;28;20513;-80
2022/04/03 09:44:49;;;;;;;5.03;2.95;;;34.70;10.50;;;;;;4991216;28;20539;-79
2022/04/03 09:47:33;;;;;;;4.72;2.50;;;35.20;10.10;;;;;;4988724;28;20037;-78
2022/04/03 09:50:00;;;;;;;6.63;3.38;;;35.20;9.90;;;;;;4987837;28;20034;-79
2022/04/03 09:52:47;;;;;;;8.77;3.05;;;35.40;10.00;;;;;;4982631;28;20490;-80
2022/04/03 09:55:17;;;;;;;7.63;4.68;;;35.50;10.20;;;;;;4977339;28;20031;-81
2022/04/03 09:57:47;;;;;;;5.00;2.08;;;35.70;9.20;;;;;;4988235;28;20038;-79
2022/04/03 10:00:26;;;;;;;6.43;2.40;;;35.60;8.90;;;;;;4988680;28;20034;-79
2022/04/03 10:02:59;;;;;;;4.63;1.83;;;35.80;8.40;;;;;;4985344;28;20034;-81
2022/04/03 10:05:27;;;;;;;3.88;1.90;;;36.00;8.70;;;;;;4982481;28;20037;-81
2022/04/03 10:07:54;;;;;;;4.80;2.22;;;34.40;8.50;;;;;;4986918;28;20512;-79
2022/04/03 10:10:20;;;;;;;5.65;2.15;;;36.10;9.70;;;;;;4987694;28;20404;-77
2022/04/03 10:12:46;;;;;;;6.18;2.28;;;36.20;9.00;;;;;;4987491;28;20034;-73
2022/04/03 10:15:12;;;;;;;4.13;2.10;;;36.60;8.90;;;;;;4988049;28;20053;-77
2022/04/03 10:17:40;;;;;;;4.40;1.98;;;36.80;8.90;;;;;;4988502;28;20023;-77
2022/04/03 10:20:09;;;;;;;5.40;2.10;;;36.60;8.80;;;;;;4982403;28;20084;-79
2022/04/03 10:22:39;;;;;;;3.65;1.80;;;36.50;8.50;;;;;;4985652;28;20046;-79
2022/04/03 10:25:11;;;;;;;4.82;1.80;;;36.80;8.80;;;;;;4960707;28;20035;-79
2022/04/03 10:27:39;;;;;;;4.25;1.70;;;37.10;8.90;;;;;;4986873;28;20530;-80
2022/04/03 10:30:06;;;;;;;5.32;1.70;;;37.90;8.40;;;;;;4983063;28;20112;-81
2022/04/03 10:32:34;;;;;;;4.93;1.70;;;38.40;8.20;;;;;;4976000;28;20035;-80
2022/04/03 10:35:08;;;;;;;5.00;1.95;;;37.00;8.90;;;;;;4977115;28;20438;-78
2022/04/03 10:37:38;;;;;;;3.97;1.80;;;37.10;8.50;;;;;;4986222;28;20038;-80
2022/04/03 10:40:18;;;;;;;6.50;1.90;;;37.70;8.40;;;;;;4985858;28;20034;-80
2022/04/03 10:42:58;;;;;;;5.13;1.70;;;38.20;8.10;;;;;;4982975;28;20110;-79
2022/04/03 10:45:34;;;;;;;4.75;1.50;;;38.00;8.60;;;;;;4971124;28;20477;-80
2022/04/03 10:48:21;;;;;;;4.07;1.90;;;35.40;9.10;;;;;;4988754;28;20053;-81
2022/04/03 10:51:03;;;;;;;5.07;1.90;;;32.80;10.60;;;;;;4991269;28;20026;-79
2022/04/03 10:53:43;;;;;;;3.95;1.73;;;32.50;11.10;;;;;;4988925;28;20101;-78
2022/04/03 10:56:09;;;;;;;;;;;31.80;11.20;;;;;;4986575;28;20046;-79
2022/04/03 10:58:43;;;;;;;6.70;2.90;;;35.10;9.50;;;;;;4985999;28;19909;-79
2022/04/03 11:01:31;;;;;;;4.10;1.70;;;32.70;10.70;;;;;;4983865;28;20101;-78
2022/04/03 11:04:10;;;;;;;4.18;1.52;;;30.50;11.90;;;;;;4986175;28;20592;-79
2022/04/03 11:06:38;;;;;;;3.97;1.67;;;30.40;11.80;;;;;;4985714;28;20121;-79
2022/04/03 11:09:12;;;;;;;4.43;1.90;;;29.50;12.20;;;;;;4988644;28;20084;-79
2022/04/03 11:11:40;;;;;;;4.25;1.60;;;28.40;13.30;;;;;;4981200;28;20058;-79
2022/04/03 11:14:10;;;;;;;4.93;1.50;;;27.60;13.60;;;;;;4986985;28;20037;-79
2022/04/03 11:16:55;;;;;;;4.53;1.63;;;30.20;11.90;;;;;;4986421;28;20033;-80
2022/04/03 11:19:41;;;;;;;4.10;1.67;;;30.30;12.10;;;;;;4988287;28;20037;-78
2022/04/03 11:22:12;;;;;;;5.82;1.77;;;29.10;13.50;;;;;;4985944;28;20123;-79
2022/04/03 11:24:39;;;;;;;7.03;1.92;;;26.80;14.10;;;;;;4992027;28;20033;-81
2022/04/03 11:27:06;;;;;;;6.20;1.92;;;26.30;14.90;;;;;;4997839;28;20398;-80
2022/04/03 11:29:33;;;;;;;5.75;2.20;;;24.20;16.80;;;;;;4994959;28;20101;-80
2022/04/03 11:32:05;;;;;;;8.23;2.08;;;22.30;18.20;;;;;;4986811;28;20085;-80
2022/04/03 11:34:32;;;;;;;5.03;1.92;;;21.10;19.30;;;;;;4967546;28;20465;-79
2022/04/03 11:37:00;;;;;;;4.90;2.00;;;20.50;20.20;;;;;;4989066;28;20053;-80
2022/04/03 11:39:37;;;;;;;6.72;1.92;;;20.20;20.60;;;;;;4985776;28;20116;-79
2022/04/03 11:42:05;;;;;;;4.63;1.98;;;22.30;18.30;;;;;;4988133;28;20589;-79
2022/04/03 11:44:34;;;;;;;4.20;2.20;;;21.60;19.10;;;;;;4986979;28;20088;-78
2022/04/03 11:47:01;;;;;;;3.92;2.08;;;20.90;19.60;;;;;;4966943;28;20512;-77
2022/04/03 11:49:29;;;;;;;3.97;1.92;;;20.20;19.60;;;;;;4985629;28;20513;-77
2022/04/03 11:52:04;;;;;;;3.80;1.80;;;20.70;20.20;;;;;;4983058;28;20547;-81
2022/04/03 11:54:30;;;;;;;3.70;1.65;;;25.90;15.30;;;;;;4981637;28;20031;-78
2022/04/03 11:57:04;;;;;;;4.65;1.67;;;30.00;12.80;;;;;;4973260;28;20126;-79
2022/04/03 11:59:36;;;;;;;3.70;1.70;;;32.40;11.50;;;;;;4986146;28;20096;-82
2022/04/03 12:02:10;;;;;;;5.13;1.65;;;34.00;10.00;;;;;;4985663;28;20125;-80
2022/04/03 12:04:42;;;;;;;4.07;1.40;;;35.30;9.50;;;;;;4983782;28;20073;-81
2022/04/03 12:07:13;;;;;;;4.28;1.40;;;36.00;9.40;;;;;;4984243;28;20573;-80
2022/04/03 12:09:43;;;;;;;4.70;1.70;;;35.50;9.60;;;;;;4972523;28;20489;-80
2022/04/03 12:12:10;;;;;;;4.97;1.67;;;32.50;12.10;;;;;;4986367;28;20484;-80
2022/04/03 12:14:40;;;;;;;4.63;1.50;;;31.20;11.50;;;;;;4986412;28;20475;-81
2022/04/03 12:17:10;;;;;;;3.63;1.30;;;;;;;;;;4984344;28;20569;-80
2022/04/03 12:19:44;;;;;;;17.40;1.63;;;32.30;11.50;;;;;;4981842;28;20038;-80
2022/04/03 12:22:14;;;;;;;4.45;1.67;;;31.10;11.70;;;;;;4981227;28;20077;-80
2022/04/03 12:24:40;;;;;;;4.90;1.80;;;28.70;12.90;;;;;;4984980;28;20045;-77
2022/04/03 12:27:15;;;;;;;4.90;1.77;;;23.70;17.90;;;;;;4968378;28;20034;-79
2022/04/03 12:29:50;;;;;;;4.45;1.90;;;25.30;15.60;;;;;;4971311;28;20038;-78
2022/04/03 12:32:28;;;;;;;5.30;2.00;;;24.10;16.80;;;;;;4985238;28;20096;-78
2022/04/03 12:34:55;;;;;;;4.60;2.03;;;22.70;18.30;;;;;;4978524;28;20031;-80
2022/04/03 12:37:21;;;;;;;5.20;2.03;;;21.40;19.30;;;;;;4975160;28;20023;-79
2022/04/03 12:40:07;;;;;;;4.53;1.70;;;20.70;20.20;;;;;;4973809;28;20041;-79
2022/04/03 12:42:33;;;;;;;3.80;1.70;;;20.30;20.40;;;;;;4985176;28;20479;-80
2022/04/03 12:44:59;;;;;;;3.78;1.60;;;20.80;19.90;;;;;;4970831;28;20034;-80
2022/04/03 12:47:31;;;;;;;4.90;1.77;;;20.90;19.20;;;;;;4983168;28;20549;-81
2022/04/03 12:50:06;;;;;;;4.97;1.90;;;22.80;17.50;;;;;;4985128;28;20042;-82
2022/04/03 12:52:40;;;;;;;3.72;1.60;;;27.00;14.90;;;;;;4980093;28;20081;-82
2022/04/03 12:55:26;;;;;;;5.68;1.50;;;26.50;15.10;;;;;;4974376;28;20031;-80
2022/04/03 13:00:48;;;;;;;5.18;1.80;;;22.70;17.90;;;;;;4972782;28;20050;-82